Hauptseite
METAR-TAF:

METAR-TAF

Flughäfen :

Kairo, Ägypten

Flughafen Kairo

Breite: 30-08N, Länge: 031-24E, Höhe: 64 m

Beobachtung

Neuester Wetterbericht von vor 27 Minuten, um 17:30 UTC
Wind 13 kt aus Nord
Temperatur 28°C
Luftfeuchtigkeit 58%
Luftdruck 1017 hPa
Sichtweite 10 km oder mehr
keine Wolken unter 1500 m und keine Kumulonimbus oder Gewitterwolken

METAR: HECA 261730Z 01013KT CAVOK 28/19 Q1017 NOSIG

Zeit: 19:57 (17:57 UTC)

Prognose

Neuester Wetterbericht von vor 57 Minuten, um 17:00 UTC
Gültige Prognose vom 26 um 18 UTC bis 27 um 24 UTC
Wind 12 kt aus Nord/Nordost
Sichtweite 10 km oder mehr
keine Wolken unter 1500 m und keine Kumulonimbus oder Gewitterwolken
Zeitweise
vom 27 um 00 UTC bis 27 um 06 UTC
Wind 3 kt aus unterschiedlichen Richtungen
Sichtweite: 3000 m
feuchter Dunst

TAF: HECA 261700Z 2618/2724 02012KT CAVOK TEMPO 2700/2706 VRB03KT 3000 BR NSC

Wetterbeobachtungen und Prognosen von mehr als 4000 Flughäfen (METAR und TAF Bericht).

Die verfügbaren Stationen werden durch gelbe und rote Markierungen auf der Karte dargestellt.

Führen Sie die Maus auf sie, um den Namen der Station zu sehen.

Darauf klicken, um die Beobachtung von Wetterbeobachtungen und Prognosen zu sehen.

Um die Karte zu ändern : klicken Sie auf den grünen Tasten mit einem schwarzen Kreuz Zum Vergrößern, auf den grünen Button mit einem Gedankenstrich zu verkleinern, oder auf die grünen Pfeile für benachbarte Karten.


METAR-TAF: